Terminal Aerodrome Forecast
Issued by NWS Key West, FL

Current Version | Previous Version | Text Only | Print | Product List | Glossary On
Versions: 1 2 3 4 5 6 7 8 9 10 11 12 13 14 15 16 17 18 19 20 21 22 23 24 25 26 27 28 29 30 31 32 33 34 35 36
000
FTUS42 KKEY 080520
TAFEYW
TAF
KEYW 080520Z 0806/0906 11009KT P6SM FEW026
     FM081700 11012KT P6SM SCT026=

USA.gov is the U.S. government's official web portal to all federal, state and local government web resources and services.